GBYD/BJL METAR and TAF weather

Enter ICAO airport designator
Station Type Date Time Source
GBYD METAR 2020/01/19 17:00 UTC NOAA

GBYD 191700Z 05006KT 8000 NSC 35/12 Q1008


Station Type Date Time Source
GBYD Decoded METAR 2020/01/19 17:00 UTC NOAA

Banjul / Yundum, Gambia, The (GBYD) 13-21N 016-48W 36M
Jan 19, 2020 - 12:00 PM EST / 2020.01.19 1700 UTC
Wind: from the NE (050 degrees) at 7 MPH (6 KT):0
Visibility: 4 mile(s):0
Temperature: 95 F (35 C)
Dew Point: 53 F (12 C)
Relative Humidity: 24%
Pressure (altimeter): 29.77 in. Hg (1008 hPa)
ob: GBYD 191700Z 05006KT 8000 NSC 35/12 Q1008
cycle: 17

Station Type Date Time Source
GBYD TAF 2020/01/19 12:30 UTC NOAA

TAF GBYD 191130Z 1912/2018 VRB05KT 8000 NSC

Example: see airport list